Time;durP1;ratioP1;P1;durP2;ratioP2;P2;SDS_P1;SDS_P2;PMS_P1;PMS_P2;Temp;Humidity;BMP_temperature;BMP_pressure;BME280_temperature;BME280_humidity;BME280_pressure;Samples;Min_cycle;Max_cycle;Signal;HPM_P1;HPM_P2
2022/03/10 00:00:51;;;;;;;;;;;;;;;-143.90;68.46;55146.97;2097779;28;20010;-64
2022/03/10 00:02:12;;;;;;;;;;;;;;;-143.90;69.06;55093.34;2098153;28;19924;-65
2022/03/10 00:03:32;;;;;;;;;;;;;;;-143.90;68.70;55103.28;2096960;28;19920;-65
2022/03/10 00:04:53;;;;;;;;;;;;;;;-143.90;68.92;55119.16;2096421;28;19924;-65
2022/03/10 00:06:14;;;;;;;;;;;;;;;-143.90;68.24;55107.25;2095717;28;20013;-63
2022/03/10 00:07:35;;;;;;;;;;;;;;;-143.90;67.98;55139.03;2098102;27;19997;-65
2022/03/10 00:08:57;;;;;;;;;;;;;;;-143.90;67.46;55095.34;2099597;28;19927;-65
2022/03/10 00:10:17;;;;;;;;;;;;;;;-143.90;67.36;55107.25;2098976;28;20026;-66
2022/03/10 00:11:38;;;;;;;;;;;;;;;-143.90;66.75;55125.13;2097990;28;19930;-65
2022/03/10 00:12:59;;;;;;;;;;;;;;;-143.90;66.52;55135.03;2098260;28;19969;-64
2022/03/10 00:14:19;;;;;;;;;;;;;;;-143.90;65.84;55131.06;2097327;28;19920;-65
2022/03/10 00:15:40;;;;;;;;;;;;;;;-143.90;66.35;55099.31;2098217;28;19970;-65
2022/03/10 00:17:01;;;;;;;;;;;;;;;-143.90;65.74;55107.25;2098831;28;20011;-65
2022/03/10 00:18:22;;;;;;;;;;;;;;;-143.90;65.66;55111.22;2098672;28;20329;-64
2022/03/10 00:19:43;;;;;;;;;;;;;;;-143.90;65.19;55154.91;2097798;28;19946;-64
2022/03/10 00:21:03;;;;;;;;;;;;;;;-143.90;64.96;55095.34;2097167;28;20035;-63
2022/03/10 00:22:24;;;;;;;;;;;;;;;-143.90;64.67;55087.41;2098329;28;19920;-64
2022/03/10 00:23:45;;;;;;;;;;;;;;;-143.90;64.85;55091.38;2098459;28;20485;-64
2022/03/10 00:25:05;;;;;;;;;;;;;;;-143.90;64.64;55111.22;2098752;28;19927;-64
2022/03/10 00:26:26;;;;;;;;;;;;;;;-143.90;65.02;55115.19;2098886;28;20650;-64
2022/03/10 00:27:47;;;;;;;;;;;;;;;-143.90;64.64;55117.19;2098102;28;19939;-64
2022/03/10 00:29:08;;;;;;;;;;;;;;;-143.90;64.39;55123.13;2097075;28;19920;-65
2022/03/10 00:30:29;;;;;;;;;;;;;;;-143.90;64.47;55133.06;2098063;28;19920;-64
2022/03/10 00:31:49;;;;;;;;;;;;;;;-143.90;64.52;55099.31;2097687;28;20014;-65
2022/03/10 00:33:10;;;;;;;;;;;;;;;-143.90;64.19;55075.47;2098785;28;19920;-65
2022/03/10 00:34:32;;;;;;;;;;;;;;;-143.90;64.50;55115.19;2097510;28;19985;-64
2022/03/10 00:35:52;;;;;;;;;;;;;;;-143.90;63.92;55087.41;2097424;28;19924;-64
2022/03/10 00:37:13;;;;;;;;;;;;;;;-143.90;63.71;55131.06;2097823;28;20037;-65
2022/03/10 00:38:34;;;;;;;;;;;;;;;-143.90;63.88;55095.34;2098205;28;20391;-64
2022/03/10 00:39:54;;;;;;;;;;;;;;;-143.90;64.11;55097.31;2098455;28;19936;-64
2022/03/10 00:41:15;;;;;;;;;;;;;;;-143.90;64.02;55115.19;2100976;28;20042;-63
2022/03/10 00:42:37;;;;;;;;;;;;;;;-143.90;64.55;55146.97;2098517;28;20011;-64
2022/03/10 00:43:57;;;;;;;;;;;;;;;-143.90;64.47;55103.28;2095664;28;20540;-65
2022/03/10 00:45:19;;;;;;;;;;;;;;;-143.90;64.62;55107.25;2097017;28;20379;-65
2022/03/10 00:46:39;;;;;;;;;;;;;;;-143.90;63.93;55095.34;2098172;28;20011;-64
2022/03/10 00:48:00;;;;;;;;;;;;;;;-143.90;63.46;55085.41;2097705;28;20284;-65
2022/03/10 00:49:21;;;;;;;;;;;;;;;-143.90;64.01;55111.22;2098657;28;20016;-63
2022/03/10 00:50:41;;;;;;;;;;;;;;;-143.90;64.09;55071.50;2098525;28;19927;-65
2022/03/10 00:52:02;;;;;;;;;;;;;;;-143.90;64.01;55107.25;2097903;28;19934;-64
2022/03/10 00:53:23;;;;;;;;;;;;;;;-143.90;64.01;55099.31;2097660;28;19924;-64
2022/03/10 00:54:44;;;;;;;;;;;;;;;-143.90;63.99;55091.38;2099052;28;19927;-64
2022/03/10 00:56:04;;;;;;;;;;;;;;;-143.90;64.02;55139.03;2099222;28;19927;-65
2022/03/10 00:57:25;;;;;;;;;;;;;;;-143.90;63.87;55119.16;2098072;28;19928;-63
2022/03/10 00:58:46;;;;;;;;;;;;;;;-143.90;64.27;55109.22;2098531;28;19920;-64
2022/03/10 01:00:07;;;;;;;;;;;;;;;-143.90;64.15;55111.22;2096901;28;20500;-64
2022/03/10 01:01:27;;;;;;;;;;;;;;;-143.90;64.09;55111.22;2098859;28;20466;-63
2022/03/10 01:02:48;;;;;;;;;;;;;;;-143.90;64.54;55103.28;2094491;28;19974;-66
2022/03/10 01:04:09;;;;;;;;;;;;;;;-143.90;64.46;55129.09;2096288;28;19926;-65
2022/03/10 01:05:32;;;;;;;;;;;;;;;-143.90;64.76;55087.41;2097369;28;20360;-65
2022/03/10 01:06:53;;;;;;;;;;;;;;;-143.90;65.79;55091.38;2097622;28;19971;-65
2022/03/10 01:08:13;;;;;;;;;;;;;;;-143.90;65.75;55099.31;2096890;28;19998;-64
2022/03/10 01:09:34;;;;;;;;;;;;;;;-143.90;65.65;55107.25;2097820;28;20287;-64
2022/03/10 01:10:55;;;;;;;;;;;;;;;-143.90;66.13;55099.31;2099155;28;19962;-65
2022/03/10 01:12:15;;;;;;;;;;;;;;;-143.90;65.68;55083.41;2098627;28;19936;-65
2022/03/10 01:13:36;;;;;;;;;;;;;;;-143.90;66.06;55111.22;2096828;28;19928;-65
2022/03/10 01:14:57;;;;;;;;;;;;;;;-143.90;66.65;55079.44;2097004;28;19926;-65
2022/03/10 01:16:18;;;;;;;;;;;;;;;-143.90;66.61;55121.16;2097119;28;19924;-66
2022/03/10 01:17:39;;;;;;;;;;;;;;;-143.90;66.87;55125.13;2096890;28;19970;-65
2022/03/10 01:19:00;;;;;;;;;;;;;;;-143.90;66.67;55071.50;2097666;28;19920;-65
2022/03/10 01:20:22;;;;;;;;;;;;;;;-143.90;66.62;55123.13;2097786;28;19920;-65
2022/03/10 01:21:42;;;;;;;;;;;;;;;-143.90;66.64;55095.34;2097337;28;19920;-65
2022/03/10 01:23:03;;;;;;;;;;;;;;;-143.90;66.48;55115.19;2097793;28;19931;-64
2022/03/10 01:24:24;;;;;;;;;;;;;;;-143.90;66.74;55119.16;2098415;28;20619;-65
2022/03/10 01:25:44;;;;;;;;;;;;;;;-143.90;66.36;55119.16;2097524;28;20408;-65
2022/03/10 01:27:05;;;;;;;;;;;;;;;-143.90;66.50;55087.41;2098708;28;19920;-64
2022/03/10 01:28:25;;;;;;;;;;;;;;;-143.90;66.13;55109.22;2089370;28;19925;-66
2022/03/10 01:29:46;;;;;;;;;;;;;;;-143.90;66.28;55099.31;2089037;28;19920;-65
2022/03/10 01:31:09;;;;;;;;;;;;;;;-143.90;66.56;55095.34;2080498;28;19932;-65
2022/03/10 01:32:30;;;;;;;;;;;;;;;-143.90;66.49;55101.28;2086482;28;19921;-62
2022/03/10 01:33:51;;;;;;;;;;;;;;;-143.90;66.21;55129.09;2089937;28;20348;-64
2022/03/10 01:35:13;;;;;;;;;;;;;;;-143.90;65.82;55129.09;2081995;28;19920;-65
2022/03/10 01:36:33;;;;;;;;;;;;;;;-143.90;66.59;55135.03;2087622;28;20724;-64
2022/03/10 01:37:54;;;;;;;;;;;;;;;-143.90;66.75;55166.81;2090732;28;19924;-65
2022/03/10 01:39:15;;;;;;;;;;;;;;;-143.90;66.85;55109.22;2091415;28;20123;-65
2022/03/10 01:40:36;;;;;;;;;;;;;;;-143.90;66.62;55127.09;2090444;28;20400;-65
2022/03/10 01:41:58;;;;;;;;;;;;;;;-143.90;67.03;55111.22;2088399;28;19920;-65
2022/03/10 01:43:19;;;;;;;;;;;;;;;-143.90;67.66;55087.41;2088152;28;19972;-64
2022/03/10 01:44:39;;;;;;;;;;;;;;;-143.90;67.60;55079.44;2090889;28;19921;-64
2022/03/10 01:46:02;;;;;;;;;;;;;;;-143.90;67.88;55079.44;2090821;28;20746;-65
2022/03/10 01:47:22;;;;;;;;;;;;;;;-143.90;67.53;55111.22;2088849;28;20020;-65
2022/03/10 01:48:44;;;;;;;;;;;;;;;-143.90;67.71;55103.28;2089620;28;19925;-63
2022/03/10 01:50:05;;;;;;;;;;;;;;;-143.90;68.45;55081.44;2088118;28;20361;-64
2022/03/10 01:51:26;;;;;;;;;;;;;;;-143.90;68.13;55119.16;2095896;28;19920;-65
2022/03/10 01:52:48;;;;;;;;;;;;;;;-143.90;68.98;55091.38;2091952;28;19925;-62
2022/03/10 01:54:08;;;;;;;;;;;;;;;-143.90;68.67;55091.38;2082279;28;19928;-64
2022/03/10 01:55:29;;;;;;;;;;;;;;;-143.90;69.16;55075.47;2086570;28;19921;-65
2022/03/10 01:56:52;;;;;;;;;;;;;;;-143.90;69.17;55079.44;2088384;28;19947;-65
2022/03/10 01:58:13;;;;;;;;;;;;;;;-143.90;68.80;55091.38;2088810;28;20019;-65
2022/03/10 01:59:33;;;;;;;;;;;;;;;-143.90;68.75;55115.19;2095571;28;20526;-65
2022/03/10 02:00:55;;;;;;;;;;;;;;;-143.90;68.42;55133.06;2090140;28;20364;-63
2022/03/10 02:02:15;;;;;;;;;;;;;;;-143.90;69.03;55091.38;2081943;28;19959;-63
2022/03/10 02:03:37;;;;;;;;;;;;;;;-143.90;69.19;55115.19;2087415;28;19928;-65
2022/03/10 02:04:58;;;;;;;;;;;;;;;-143.90;68.98;55099.31;2088449;28;20165;-65
2022/03/10 02:06:19;;;;;;;;;;;;;;;-143.90;68.80;55095.34;2089565;28;19973;-65
2022/03/10 02:10:58;;;;;;;;;;;;;;;-143.90;69.86;55139.03;2087770;28;19963;-65
2022/03/10 02:12:20;;;;;;;;;;;;;;;-143.90;70.16;55099.31;2089556;28;19932;-64
2022/03/10 02:13:41;;;;;;;;;;;;;;;-143.90;70.43;55119.16;2090565;28;19927;-65
2022/03/10 02:18:30;;;;;;;;;;;;;;;-143.90;70.46;55077.47;2089022;28;20386;-61
2022/03/10 02:19:55;;;;;;;;;;;;;;;-143.90;70.30;55107.25;2087790;28;19923;-61
2022/03/10 02:21:16;;;;;;;;;;;;;;;-143.90;70.88;55111.22;2090702;27;19955;-63
2022/03/10 02:22:36;;;;;;;;;;;;;;;-143.90;71.04;55091.38;2088427;28;19921;-65
2022/03/10 02:23:57;;;;;;;;;;;;;;;-143.90;70.67;55083.41;2090166;28;20784;-63
2022/03/10 02:25:19;;;;;;;;;;;;;;;-143.90;70.24;55150.94;2090169;28;20451;-63
2022/03/10 02:26:40;;;;;;;;;;;;;;;-143.90;70.90;55087.41;2098116;28;20028;-64
2022/03/10 02:28:01;;;;;;;;;;;;;;;-143.90;71.26;55103.28;2090932;28;19933;-64
2022/03/10 02:29:21;;;;;;;;;;;;;;;-143.90;71.10;55079.44;2090331;28;19920;-64
2022/03/10 02:30:42;;;;;;;;;;;;;;;-143.90;71.63;55093.34;2089173;28;20642;-64
2022/03/10 02:32:03;;;;;;;;;;;;;;;-143.90;71.91;55135.03;2089232;28;19924;-64
2022/03/10 02:33:23;;;;;;;;;;;;;;;-143.90;71.97;55093.34;2088354;28;19920;-65
2022/03/10 02:34:44;;;;;;;;;;;;;;;-143.90;72.35;55071.50;2088359;28;20487;-65
2022/03/10 02:36:05;;;;;;;;;;;;;;;-143.90;72.27;55091.38;2087444;28;19921;-63
2022/03/10 02:37:26;;;;;;;;;;;;;;;-143.90;72.40;55091.38;2089610;28;20299;-64
2022/03/10 02:38:46;;;;;;;;;;;;;;;-143.90;72.18;55117.19;2089628;28;19928;-64
2022/03/10 02:40:07;;;;;;;;;;;;;;;-143.90;72.57;55101.28;2087073;28;19930;-64
2022/03/10 02:41:28;;;;;;;;;;;;;;;-143.90;72.23;55135.03;2088018;28;19927;-63
2022/03/10 02:42:49;;;;;;;;;;;;;;;-143.90;72.41;55143.00;2089086;28;20522;-62
2022/03/10 02:44:10;;;;;;;;;;;;;;;-143.90;72.59;55089.38;2088439;28;20046;-64
2022/03/10 02:45:30;;;;;;;;;;;;;;;-143.90;71.92;55117.19;2089198;28;19936;-62
2022/03/10 02:46:51;;;;;;;;;;;;;;;-143.90;71.91;55097.31;2089083;28;19921;-64
2022/03/10 02:48:16;;;;;;;;;;;;;;;-143.90;71.92;55071.50;2090446;28;19920;-63
2022/03/10 02:49:37;;;;;;;;;;;;;;;-143.90;72.25;55095.34;2090069;28;19921;-64
2022/03/10 02:50:57;;;;;;;;;;;;;;;-143.90;72.02;55131.06;2087150;28;19947;-64
2022/03/10 02:52:18;;;;;;;;;;;;;;;-143.90;72.08;55087.41;2089630;28;19925;-64
2022/03/10 02:53:39;;;;;;;;;;;;;;;-143.90;72.35;55099.31;2087926;28;20008;-64
2022/03/10 02:55:00;;;;;;;;;;;;;;;-143.90;72.20;55109.22;2088747;28;19920;-64
2022/03/10 02:56:21;;;;;;;;;;;;;;;-143.90;72.64;55095.34;2087930;28;19928;-63
2022/03/10 02:57:41;;;;;;;;;;;;;;;-143.90;71.49;55115.19;2087872;28;20022;-63
2022/03/10 02:59:02;;;;;;;;;;;;;;;-143.90;71.24;55115.19;2089044;28;20460;-64
2022/03/10 03:00:23;;;;;;;;;;;;;;;-143.90;71.37;55087.41;2087828;28;20304;-64
2022/03/10 03:01:44;;;;;;;;;;;;;;;-143.90;71.11;55121.16;2089859;28;20385;-64
2022/03/10 03:03:04;;;;;;;;;;;;;;;-143.90;70.81;55079.44;2088849;28;19998;-64
2022/03/10 03:04:25;;;;;;;;;;;;;;;-143.90;71.40;55135.03;2086673;28;19971;-64
2022/03/10 03:05:46;;;;;;;;;;;;;;;-143.90;71.62;55111.22;2088413;28;20015;-63
2022/03/10 03:07:07;;;;;;;;;;;;;;;-143.90;71.71;55111.22;2088209;28;20114;-63
2022/03/10 03:08:28;;;;;;;;;;;;;;;-143.90;71.49;55103.28;2088206;28;20015;-64
2022/03/10 03:09:48;;;;;;;;;;;;;;;-143.90;71.94;55115.19;2087549;28;19928;-64
2022/03/10 03:11:10;;;;;;;;;;;;;;;-143.90;71.42;55103.28;2083120;28;19920;-64
2022/03/10 03:12:31;;;;;;;;;;;;;;;-143.90;70.75;55111.22;2085394;28;19925;-62
2022/03/10 03:13:52;;;;;;;;;;;;;;;-143.90;71.49;55107.25;2089530;28;19927;-63
2022/03/10 03:15:12;;;;;;;;;;;;;;;-143.90;70.75;55075.47;2089999;28;19931;-62
2022/03/10 03:16:34;;;;;;;;;;;;;;;-143.90;71.02;55127.09;2088105;28;19940;-64
2022/03/10 03:17:54;;;;;;;;;;;;;;;-143.90;71.23;55075.47;2084753;28;19998;-64
2022/03/10 03:19:15;;;;;;;;;;;;;;;-143.90;71.39;55091.38;2088036;28;19921;-64
2022/03/10 03:20:36;;;;;;;;;;;;;;;-143.90;72.44;55119.16;2088647;28;19921;-61
2022/03/10 03:21:57;;;;;;;;;;;;;;;-143.90;72.82;55111.22;2085986;28;20024;-64
2022/03/10 03:23:17;;;;;;;;;;;;;;;-143.90;73.00;55103.28;2089302;28;20032;-64
2022/03/10 03:24:39;;;;;;;;;;;;;;;-143.90;73.60;55115.19;2089746;28;20023;-64
2022/03/10 03:25:59;;;;;;;;;;;;;;;-143.90;74.07;55103.28;2088568;28;19967;-63
2022/03/10 03:27:21;;;;;;;;;;;;;;;-143.90;74.41;55115.19;2088507;28;19921;-63
2022/03/10 03:28:43;;;;;;;;;;;;;;;-143.90;74.74;55099.31;2095673;28;19938;-63
2022/03/10 03:30:05;;;;;;;;;;;;;;;-143.90;74.54;55099.31;2105081;27;19920;-61
2022/03/10 03:31:26;;;;;;;;;;;;;;;-143.90;74.97;55079.44;2099828;28;19920;-64
2022/03/10 03:32:47;;;;;;;;;;;;;;;-143.90;75.50;55117.19;2098047;28;19920;-65
2022/03/10 03:34:11;;;;;;;;;;;;;;;-143.90;76.21;55071.50;2095237;28;19927;-63
2022/03/10 03:35:31;;;;;;;;;;;;;;;-143.90;76.51;55095.34;2096270;28;19921;-64
2022/03/10 03:36:52;;;;;;;;;;;;;;;-143.90;76.62;55071.50;2095815;28;19927;-63
2022/03/10 03:38:13;;;;;;;;;;;;;;;-143.90;76.55;55121.16;2096695;28;19924;-62
2022/03/10 03:39:33;;;;;;;;;;;;;;;-143.90;75.98;55079.44;2096154;28;20027;-63
2022/03/10 03:40:54;;;;;;;;;;;;;;;-143.90;75.85;55121.16;2098694;28;19920;-63
2022/03/10 03:42:15;;;;;;;;;;;;;;;-143.90;75.61;55115.19;2100115;28;19950;-64
2022/03/10 03:43:35;;;;;;;;;;;;;;;-143.90;76.46;55091.38;2099743;27;19927;-64
2022/03/10 03:44:56;;;;;;;;;;;;;;;-143.90;76.38;55077.47;2097954;28;19920;-63
2022/03/10 03:46:17;;;;;;;;;;;;;;;-143.90;76.04;55127.09;2098501;28;20458;-64
2022/03/10 03:47:38;;;;;;;;;;;;;;;-143.90;75.74;55103.28;2100484;28;19931;-64
2022/03/10 03:48:58;;;;;;;;;;;;;;;-143.90;76.32;55111.22;2098337;28;19935;-63
2022/03/10 03:50:19;;;;;;;;;;;;;;;-143.90;77.03;55127.09;2096995;28;19921;-65
2022/03/10 03:51:40;;;;;;;;;;;;;;;-143.90;77.07;55099.31;2092183;28;19959;-64
2022/03/10 03:53:00;;;;;;;;;;;;;;;-143.90;77.85;55123.13;2097010;28;20030;-63
2022/03/10 03:54:21;;;;;;;;;;;;;;;-143.90;78.42;55087.41;2097718;28;19920;-64
2022/03/10 03:55:42;;;;;;;;;;;;;;;-143.90;79.83;55091.38;2097253;28;19921;-64
2022/03/10 03:57:03;;;;;;;;;;;;;;;-143.90;80.38;55109.22;2105128;28;20383;-64
2022/03/10 03:58:23;;;;;;;;;;;;;;;-143.90;81.31;55063.56;2100078;28;20019;-65
2022/03/10 03:59:44;;;;;;;;;;;;;;;-143.90;81.83;55093.34;2098352;28;19920;-64
2022/03/10 04:01:05;;;;;;;;;;;;;;;-143.90;82.14;55111.22;2097975;28;20358;-64
2022/03/10 04:02:26;;;;;;;;;;;;;;;-143.90;82.97;55091.38;2099045;28;19970;-64
2022/03/10 04:03:46;;;;;;;;;;;;;;;-143.90;83.75;55143.00;2097035;28;19921;-64
2022/03/10 04:05:07;;;;;;;;;;;;;;;-143.90;84.27;55089.38;2100117;28;20422;-64
2022/03/10 04:06:28;;;;;;;;;;;;;;;-143.90;85.84;55117.19;2100941;28;20538;-64
2022/03/10 04:07:48;;;;;;;;;;;;;;;-143.90;87.37;55109.22;2099026;27;19942;-64
2022/03/10 04:09:09;;;;;;;;;;;;;;;-143.90;87.57;55087.41;2096567;28;20418;-63
2022/03/10 04:10:30;;;;;;;;;;;;;;;-143.90;88.03;55131.06;2097088;28;20055;-65
2022/03/10 04:11:50;;;;;;;;;;;;;;;-143.90;88.38;55099.31;2098099;28;20336;-64
2022/03/10 04:13:11;;;;;;;;;;;;;;;-143.90;89.67;55107.25;2098694;28;19926;-64
2022/03/10 04:14:32;;;;;;;;;;;;;;;-143.90;90.17;55103.28;2097048;28;19912;-64
2022/03/10 04:15:53;;;;;;;;;;;;;;;-143.90;89.19;55099.31;2096687;28;19924;-65
2022/03/10 04:17:14;;;;;;;;;;;;;;;-143.90;89.74;55085.41;2098728;28;19928;-64
2022/03/10 04:18:34;;;;;;;;;;;;;;;-143.90;88.74;55075.47;2096540;28;19959;-65
2022/03/10 04:19:55;;;;;;;;;;;;;;;-143.90;87.80;55065.56;2098654;28;19927;-65
2022/03/10 04:21:15;;;;;;;;;;;;;;;-143.90;87.01;55109.22;2088913;28;19963;-64
2022/03/10 04:22:36;;;;;;;;;;;;;;;-143.90;87.05;55123.13;2096623;28;19920;-63
2022/03/10 04:23:57;;;;;;;;;;;;;;;-143.90;87.15;55107.25;2098298;28;20014;-63
2022/03/10 04:25:18;;;;;;;;;;;;;;;-143.90;87.49;55107.25;2097273;28;20016;-65
2022/03/10 04:26:39;;;;;;;;;;;;;;;-143.90;87.94;55075.47;2098350;28;19920;-65
2022/03/10 04:28:00;;;;;;;;;;;;;;;-143.90;87.77;55111.22;2092857;28;19925;-65
2022/03/10 04:29:20;;;;;;;;;;;;;;;-143.90;88.16;55089.38;2091083;28;20033;-64
2022/03/10 04:30:44;;;;;;;;;;;;;;;-143.90;88.93;55111.22;2088512;28;19920;-63
2022/03/10 04:32:04;;;;;;;;;;;;;;;-143.90;88.60;55069.53;2090323;28;20323;-62
2022/03/10 04:33:25;;;;;;;;;;;;;;;-143.90;90.42;55103.28;2088972;28;19920;-64
2022/03/10 04:34:46;;;;;;;;;;;;;;;-143.90;91.53;55083.41;2089040;28;20010;-64
2022/03/10 04:36:07;;;;;;;;;;;;;;;-143.90;93.36;55095.34;2090421;28;20696;-64
2022/03/10 04:37:27;;;;;;;;;;;;;;;-143.90;94.63;55067.53;2090612;28;19927;-64
2022/03/10 04:38:48;;;;;;;;;;;;;;;-143.90;95.38;55107.25;2089455;28;20043;-64
2022/03/10 04:40:09;;;;;;;;;;;;;;;-143.90;97.13;55083.41;2090370;28;19924;-63
2022/03/10 04:41:29;;;;;;;;;;;;;;;-143.90;97.89;55127.09;2089867;28;19921;-63
2022/03/10 04:42:50;;;;;;;;;;;;;;;-143.90;98.04;55119.16;2091108;28;20786;-63
2022/03/10 04:44:11;;;;;;;;;;;;;;;-143.90;98.83;55089.38;2088423;28;19917;-64
2022/03/10 04:45:31;;;;;;;;;;;;;;;-143.90;99.38;55079.44;2090668;28;19920;-64
2022/03/10 04:46:52;;;;;;;;;;;;;;;-143.90;100.00;55125.13;2097078;28;19928;-64
2022/03/10 04:48:13;;;;;;;;;;;;;;;-143.90;100.00;55079.44;2092354;28;19924;-63
2022/03/10 04:49:34;;;;;;;;;;;;;;;-143.90;100.00;55085.41;2088060;28;19920;-62
2022/03/10 04:50:54;;;;;;;;;;;;;;;-143.90;100.00;55091.38;2088358;28;19920;-63
2022/03/10 04:52:15;;;;;;;;;;;;;;;-143.90;100.00;55093.34;2088409;28;19979;-62
2022/03/10 04:53:36;;;;;;;;;;;;;;;-143.90;100.00;55087.41;2088617;28;20651;-64
2022/03/10 04:54:56;;;;;;;;;;;;;;;-143.90;100.00;55103.28;2089154;28;19987;-64
2022/03/10 04:56:17;;;;;;;;;;;;;;;-143.90;100.00;55091.38;2089779;28;19920;-64
2022/03/10 04:57:39;;;;;;;;;;;;;;;-143.90;100.00;55089.38;2089414;28;19963;-65
2022/03/10 04:58:59;;;;;;;;;;;;;;;-143.90;100.00;55111.22;2089004;28;19925;-63
2022/03/10 05:00:20;;;;;;;;;;;;;;;-143.90;100.00;55099.31;2088977;28;20024;-64
2022/03/10 05:01:41;;;;;;;;;;;;;;;-143.90;100.00;55091.38;2088851;28;19921;-64
2022/03/10 05:03:01;;;;;;;;;;;;;;;-143.90;100.00;55121.16;2088623;28;19932;-62
2022/03/10 05:04:22;;;;;;;;;;;;;;;-143.90;100.00;55113.22;2089044;28;20485;-64
2022/03/10 05:05:43;;;;;;;;;;;;;;;-143.90;100.00;55111.22;2090260;28;20689;-63
2022/03/10 05:07:04;;;;;;;;;;;;;;;-143.90;100.00;55135.03;2088367;28;19925;-63
2022/03/10 05:08:24;;;;;;;;;;;;;;;-143.90;100.00;55143.00;2088937;28;19927;-64
2022/03/10 05:09:45;;;;;;;;;;;;;;;-143.90;100.00;55099.31;2088814;28;19928;-64
2022/03/10 05:11:06;;;;;;;;;;;;;;;-143.90;100.00;55087.41;2088973;28;19958;-63
2022/03/10 05:12:27;;;;;;;;;;;;;;;-143.90;100.00;55103.28;2090990;28;19935;-64
2022/03/10 05:13:47;;;;;;;;;;;;;;;-143.90;100.00;55119.16;2088834;28;19920;-63
2022/03/10 05:15:08;;;;;;;;;;;;;;;-143.90;100.00;55087.41;2089084;28;19920;-65
2022/03/10 05:16:29;;;;;;;;;;;;;;;-143.90;100.00;55075.47;2089019;28;19920;-64
2022/03/10 05:17:50;;;;;;;;;;;;;;;-143.90;100.00;55095.34;2086093;28;19917;-63
2022/03/10 05:19:11;;;;;;;;;;;;;;;-143.90;100.00;55087.41;2088933;28;20277;-62
2022/03/10 05:20:31;;;;;;;;;;;;;;;-143.90;100.00;55099.31;2087778;28;19917;-64
2022/03/10 05:21:52;;;;;;;;;;;;;;;-143.90;100.00;55075.47;2088596;28;20483;-64
2022/03/10 05:23:14;;;;;;;;;;;;;;;-143.90;100.00;55099.31;2090158;28;19924;-63
2022/03/10 05:24:34;;;;;;;;;;;;;;;-143.90;100.00;55115.19;2088535;28;19928;-64
2022/03/10 05:25:55;;;;;;;;;;;;;;;-143.90;100.00;55095.34;2088401;28;19993;-64
2022/03/10 05:27:16;;;;;;;;;;;;;;;-143.90;100.00;55091.38;2087253;28;20371;-64
2022/03/10 05:28:36;;;;;;;;;;;;;;;-143.90;100.00;55107.25;2095514;28;20023;-61
2022/03/10 05:29:57;;;;;;;;;;;;;;;-143.90;100.00;55075.47;2097722;28;19921;-64
2022/03/10 05:31:18;;;;;;;;;;;;;;;-143.90;100.00;55103.28;2097925;28;19923;-64
2022/03/10 05:32:38;;;;;;;;;;;;;;;-143.90;100.00;55099.31;2095009;28;19924;-64
2022/03/10 05:33:59;;;;;;;;;;;;;;;-143.90;100.00;55099.31;2088367;28;19981;-64
2022/03/10 05:35:21;;;;;;;;;;;;;;;-143.90;100.00;55075.47;2095256;28;19992;-65
2022/03/10 05:36:42;;;;;;;;;;;;;;;-143.90;100.00;55089.38;2097189;28;20409;-65
2022/03/10 05:38:03;;;;;;;;;;;;;;;-143.90;100.00;55099.31;2099269;28;20366;-64
2022/03/10 05:39:24;;;;;;;;;;;;;;;-143.90;100.00;55111.22;2097500;28;19924;-63
2022/03/10 05:40:45;;;;;;;;;;;;;;;-143.90;100.00;55141.00;2096734;28;19916;-65
2022/03/10 05:42:05;;;;;;;;;;;;;;;-143.90;100.00;55091.38;2096584;28;19920;-64
2022/03/10 05:43:26;;;;;;;;;;;;;;;-143.90;100.00;55083.41;2097243;28;19923;-64
2022/03/10 05:44:47;;;;;;;;;;;;;;;-143.90;100.00;55095.34;2097417;28;19965;-64
2022/03/10 05:46:08;;;;;;;;;;;;;;;-143.90;100.00;55081.44;2098376;28;19916;-64
2022/03/10 05:47:28;;;;;;;;;;;;;;;-143.90;100.00;55143.00;2098010;28;20454;-65
2022/03/10 05:48:49;;;;;;;;;;;;;;;-143.90;100.00;55097.31;2096773;28;19920;-65
2022/03/10 05:50:10;;;;;;;;;;;;;;;-143.90;100.00;55111.22;2096338;28;19916;-65
2022/03/10 05:51:31;;;;;;;;;;;;;;;-143.90;100.00;55063.56;2097614;28;19931;-65
2022/03/10 05:52:52;;;;;;;;;;;;;;;-143.90;100.00;55123.13;2098030;28;20682;-64
2022/03/10 05:54:12;;;;;;;;;;;;;;;-143.90;100.00;55093.34;2096881;28;19916;-61
2022/03/10 05:55:33;;;;;;;;;;;;;;;-143.90;100.00;55075.47;2097590;28;19928;-65
2022/03/10 05:56:54;;;;;;;;;;;;;;;-143.90;100.00;55087.41;2097336;28;19916;-65
2022/03/10 05:58:15;;;;;;;;;;;;;;;-143.90;100.00;55135.03;2097522;28;19920;-65
2022/03/10 05:59:35;;;;;;;;;;;;;;;-143.90;100.00;55113.22;2097269;28;19925;-65
2022/03/10 06:00:56;;;;;;;;;;;;;;;-143.90;100.00;55115.19;2097170;28;19967;-64
2022/03/10 06:02:17;;;;;;;;;;;;;;;-143.90;100.00;55107.25;2098159;28;19916;-64
2022/03/10 06:03:38;;;;;;;;;;;;;;;-143.90;100.00;55055.63;2096913;28;19920;-65
2022/03/10 06:04:59;;;;;;;;;;;;;;;-143.90;100.00;55087.41;2097617;28;19923;-66
2022/03/10 06:06:20;;;;;;;;;;;;;;;-143.90;100.00;55113.22;2096608;28;19924;-64
2022/03/10 06:07:42;;;;;;;;;;;;;;;-143.90;100.00;55075.47;2096799;28;20336;-64
2022/03/10 06:09:02;;;;;;;;;;;;;;;-143.90;100.00;55095.34;2097577;28;19970;-65
2022/03/10 06:10:24;;;;;;;;;;;;;;;-143.90;100.00;55103.28;2097302;28;19931;-63
2022/03/10 06:11:44;;;;;;;;;;;;;;;-143.90;100.00;55101.28;2097669;28;20037;-65
2022/03/10 06:13:06;;;;;;;;;;;;;;;-143.90;100.00;55065.56;2096940;28;19994;-66
2022/03/10 06:14:26;;;;;;;;;;;;;;;-143.90;100.00;55091.38;2096027;28;19920;-65
2022/03/10 06:15:47;;;;;;;;;;;;;;;-143.90;100.00;55119.16;2096426;28;19999;-65
2022/03/10 06:17:08;;;;;;;;;;;;;;;-143.90;100.00;55103.28;2097294;28;19920;-64
2022/03/10 06:18:29;;;;;;;;;;;;;;;-143.90;100.00;55091.38;2097582;28;19924;-65
2022/03/10 06:19:50;;;;;;;;;;;;;;;-143.90;100.00;55129.09;2097765;28;20742;-65
2022/03/10 06:21:11;;;;;;;;;;;;;;;-143.90;100.00;55123.13;2096422;28;19926;-64
2022/03/10 06:22:32;;;;;;;;;;;;;;;-143.90;100.00;55087.41;2097183;28;19928;-64
2022/03/10 06:23:53;;;;;;;;;;;;;;;-143.90;100.00;55087.41;2097171;28;19923;-65
2022/03/10 06:25:14;;;;;;;;;;;;;;;-143.90;100.00;55158.88;2097103;28;20027;-64
2022/03/10 06:26:36;;;;;;;;;;;;;;;-143.90;100.00;55091.38;2097393;28;19996;-65
2022/03/10 06:27:57;;;;;;;;;;;;;;;-143.90;100.00;55095.34;2096591;28;20321;-64
2022/03/10 06:29:18;;;;;;;;;;;;;;;-143.90;100.00;55125.13;2097378;28;19927;-66
2022/03/10 06:30:38;;;;;;;;;;;;;;;-143.90;100.00;55091.38;2096540;28;19920;-65
2022/03/10 06:31:59;;;;;;;;;;;;;;;-143.90;100.00;55063.56;2097172;28;19926;-63
2022/03/10 06:33:20;;;;;;;;;;;;;;;-143.90;100.00;55079.44;2097441;28;19969;-62
2022/03/10 06:34:41;;;;;;;;;;;;;;;-143.90;100.00;55089.38;2098186;28;19973;-63
2022/03/10 06:36:02;;;;;;;;;;;;;;;-143.90;100.00;55087.41;2097866;28;19927;-62
2022/03/10 06:37:23;;;;;;;;;;;;;;;-143.90;100.00;55067.53;2096691;28;19937;-63
2022/03/10 06:38:44;;;;;;;;;;;;;;;-143.90;100.00;55111.22;2096039;28;20526;-64
2022/03/10 06:40:05;;;;;;;;;;;;;;;-143.90;100.00;55091.38;2087891;28;20007;-64
2022/03/10 06:41:26;;;;;;;;;;;;;;;-143.90;100.00;55093.34;2092992;28;19974;-64
2022/03/10 06:42:47;;;;;;;;;;;;;;;-143.90;100.00;55099.31;2097794;28;19942;-64
2022/03/10 06:44:08;;;;;;;;;;;;;;;-143.90;100.00;55047.69;2096920;28;19970;-64
2022/03/10 06:45:29;;;;;;;;;;;;;;;-143.90;97.63;55075.47;2096536;28;20406;-63
2022/03/10 06:46:51;;;;;;;;;;;;;;;-143.90;93.45;55071.50;2096393;28;20105;-63
2022/03/10 06:48:11;;;;;;;;;;;;;;;-143.90;89.29;55035.78;2096762;28;19916;-63
2022/03/10 06:49:32;;;;;;;;;;;;;;;-143.90;86.28;55127.09;2097436;28;20793;-64
2022/03/10 06:50:53;;;;;;;;;;;;;;;-143.90;82.85;55123.13;2096449;28;20573;-64
2022/03/10 06:52:14;;;;;;;;;;;;;;;-143.90;78.97;55071.50;2097283;28;20426;-65
2022/03/10 06:53:34;;;;;;;;;;;;;;;-143.90;76.50;55111.22;2088160;28;20468;-63
2022/03/10 06:54:55;;;;;;;;;;;;;;;-143.90;75.64;55103.28;2093752;28;19920;-63